createdAt,value
2022-10-02T00:02:28.041Z,97933.41
2022-10-02T00:05:38.260Z,97935.66
2022-10-02T00:08:42.992Z,97945.94
2022-10-02T00:11:49.914Z,97945.13
2022-10-02T00:14:57.946Z,97951.34
2022-10-02T00:18:09.003Z,97949.47
2022-10-02T00:21:24.689Z,97959.03
2022-10-02T00:24:34.641Z,97957.47
2022-10-02T00:27:56.339Z,97947.56
2022-10-02T00:31:15.875Z,97957.03
2022-10-02T00:34:34.966Z,97960.44
2022-10-02T00:37:47.604Z,97945.06
2022-10-02T00:41:13.451Z,97951.63
2022-10-02T00:44:38.969Z,97968.19
2022-10-02T00:47:49.519Z,97965.22
2022-10-02T00:51:04.557Z,97982.19
2022-10-02T00:54:25.441Z,97993.63
2022-10-02T00:57:44.846Z,98001.00
2022-10-02T01:01:00.857Z,98000.66
2022-10-02T01:04:12.501Z,98009.44
2022-10-02T01:07:17.514Z,98014.53
2022-10-02T01:10:22.415Z,98023.16
2022-10-02T01:13:26.660Z,98020.13
2022-10-02T01:16:31.299Z,98031.56
2022-10-02T01:19:39.194Z,98029.28
2022-10-02T01:22:50.621Z,98022.22
2022-10-02T01:25:57.748Z,98031.25
2022-10-02T01:29:02.198Z,98027.72
2022-10-02T01:32:06.043Z,98026.84
2022-10-02T01:35:10.981Z,98030.97
2022-10-02T01:38:18.384Z,98037.84
2022-10-02T01:41:25.433Z,98049.78
2022-10-02T01:44:30.321Z,98050.84
2022-10-02T01:47:47.793Z,98066.13
2022-10-02T01:51:06.101Z,98067.53
2022-10-02T01:54:20.124Z,98067.59
2022-10-02T01:57:40.802Z,98070.19
2022-10-02T02:01:02.723Z,98072.72
2022-10-02T02:04:21.725Z,98077.53
2022-10-02T02:07:37.868Z,98070.84
2022-10-02T02:10:52.707Z,98080.72
2022-10-02T02:14:07.395Z,98089.50
2022-10-02T02:17:20.683Z,98084.00
2022-10-02T02:20:31.113Z,98093.25
2022-10-02T02:23:39.213Z,98093.38
2022-10-02T02:26:47.323Z,98099.59
2022-10-02T02:29:56.714Z,98103.31
2022-10-02T02:33:07.678Z,98109.09
2022-10-02T02:36:20.314Z,98108.38
2022-10-02T02:39:31.526Z,98117.88
2022-10-02T02:42:40.078Z,98122.31
2022-10-02T02:45:51.987Z,98131.28
2022-10-02T02:49:14.975Z,98136.69
2022-10-02T02:52:22.545Z,98140.63
2022-10-02T02:55:34.215Z,98134.84
2022-10-02T02:58:44.172Z,98152.38
2022-10-02T03:01:50.714Z,98157.22
2022-10-02T03:04:54.579Z,98165.13
2022-10-02T03:08:01.095Z,98170.59
2022-10-02T03:11:14.422Z,98178.78
2022-10-02T03:14:52.745Z,98187.97
2022-10-02T03:18:23.617Z,98187.56
2022-10-02T03:21:34.041Z,98197.72
2022-10-02T03:24:45.615Z,98191.94
2022-10-02T03:27:55.175Z,98191.66
2022-10-02T03:31:00.468Z,98193.22
2022-10-02T03:34:07.040Z,98194.31
2022-10-02T03:37:11.141Z,98206.50
2022-10-02T03:40:18.402Z,98222.47
2022-10-02T03:43:24.414Z,98218.19
2022-10-02T03:46:28.882Z,98225.22
2022-10-02T03:49:34.981Z,98224.19
2022-10-02T03:52:41.726Z,98228.06
2022-10-02T03:55:48.141Z,98217.88
2022-10-02T03:58:59.331Z,98229.38
2022-10-02T04:02:07.973Z,98239.38
2022-10-02T04:05:24.025Z,98243.88
2022-10-02T04:08:36.579Z,98253.44
2022-10-02T04:11:45.371Z,98259.78
2022-10-02T04:14:57.202Z,98265.69
2022-10-02T04:18:06.230Z,98259.94
2022-10-02T04:21:21.975Z,98255.69
2022-10-02T04:24:31.237Z,98254.91
2022-10-02T04:27:39.808Z,98256.19
2022-10-02T04:30:43.850Z,98264.06
2022-10-02T04:33:48.203Z,98269.63
2022-10-02T04:37:11.624Z,98277.72
2022-10-02T04:40:31.289Z,98279.22
2022-10-02T04:43:51.915Z,98276.19
2022-10-02T04:47:11.952Z,98285.41
2022-10-02T04:50:32.857Z,98292.13
2022-10-02T04:53:58.430Z,98289.22
2022-10-02T04:57:20.061Z,98278.03
2022-10-02T05:00:25.144Z,98277.13
2022-10-02T05:03:48.638Z,98283.03
2022-10-02T05:07:07.426Z,98290.97
2022-10-02T05:10:31.496Z,98291.28
2022-10-02T05:13:55.335Z,98298.31
2022-10-02T05:17:24.470Z,98295.47
2022-10-02T05:21:02.927Z,98296.75
2022-10-02T05:24:24.802Z,98311.19
2022-10-02T05:27:51.842Z,98312.31
2022-10-02T05:31:05.462Z,98312.16
2022-10-02T05:34:38.250Z,98308.25
2022-10-02T05:37:56.226Z,98317.78
2022-10-02T05:41:06.497Z,98322.09
2022-10-02T05:44:17.936Z,98320.66
2022-10-02T05:47:30.495Z,98320.09
2022-10-02T05:50:37.802Z,98328.00
2022-10-02T05:53:47.248Z,98333.13
2022-10-02T05:56:59.740Z,98337.09
2022-10-02T06:00:18.522Z,98336.91
2022-10-02T06:03:32.453Z,98335.44
2022-10-02T06:06:44.348Z,98334.09
2022-10-02T06:09:54.889Z,98335.09
2022-10-02T06:13:07.955Z,98322.16
2022-10-02T06:16:19.892Z,98330.59
2022-10-02T06:19:28.435Z,98332.63
2022-10-02T06:22:36.947Z,98335.59
2022-10-02T06:25:46.087Z,98337.88
2022-10-02T06:28:55.407Z,98337.81
2022-10-02T06:32:18.011Z,98338.28
2022-10-02T06:35:43.433Z,98337.28
2022-10-02T06:39:14.453Z,98345.22
2022-10-02T06:42:45.484Z,98341.94
2022-10-02T06:46:07.473Z,98344.38
2022-10-02T06:49:25.299Z,98353.06
2022-10-02T06:52:43.831Z,98359.25
2022-10-02T06:55:59.799Z,98365.44
2022-10-02T06:59:15.933Z,98360.69
2022-10-02T07:02:33.920Z,98371.97
2022-10-02T07:06:02.112Z,98380.00
2022-10-02T07:09:40.684Z,98393.81
2022-10-02T07:12:58.847Z,98405.50
2022-10-02T07:16:27.889Z,98400.03
2022-10-02T07:19:59.705Z,98411.56
2022-10-02T07:23:26.746Z,98406.59
2022-10-02T07:26:50.855Z,98404.22
2022-10-02T07:30:03.763Z,98413.31
2022-10-02T07:33:20.554Z,98411.22
2022-10-02T07:36:39.466Z,98411.75
2022-10-02T07:40:06.671Z,98405.00
2022-10-02T07:43:23.814Z,98403.28
2022-10-02T07:46:38.741Z,98398.06
2022-10-02T07:49:52.209Z,98396.19
2022-10-02T07:53:04.403Z,98385.28
2022-10-02T07:56:19.966Z,98395.06
2022-10-02T07:59:32.833Z,98392.94
2022-10-02T08:02:44.521Z,98409.59
2022-10-02T08:05:51.144Z,98404.22
2022-10-02T08:09:01.379Z,98404.66
2022-10-02T08:12:17.058Z,98408.03
2022-10-02T08:15:23.599Z,98407.25
2022-10-02T08:18:58.688Z,98411.91
2022-10-02T08:22:10.270Z,98412.47
2022-10-02T08:25:21.156Z,98414.00
2022-10-02T08:28:41.150Z,98418.38
2022-10-02T08:31:45.699Z,98412.16
2022-10-02T08:34:49.446Z,98408.03
2022-10-02T08:38:20.281Z,98401.66
2022-10-02T08:41:55.533Z,98407.81
2022-10-02T08:45:24.541Z,98404.47
2022-10-02T08:49:08.249Z,98410.88
2022-10-02T08:52:44.956Z,98402.41
2022-10-02T08:56:03.535Z,98407.78
2022-10-02T08:59:54.762Z,98397.22
2022-10-02T09:03:45.889Z,98392.38
2022-10-02T09:07:42.517Z,98390.59
2022-10-02T09:11:19.419Z,98387.25
2022-10-02T09:14:55.573Z,98388.53
2022-10-02T09:18:16.906Z,98390.34
2022-10-02T09:21:42.924Z,98382.41
2022-10-02T09:25:02.900Z,98376.25
2022-10-02T09:28:42.995Z,98383.44
2022-10-02T09:32:21.789Z,98383.47
2022-10-02T09:35:55.918Z,98380.34
2022-10-02T09:39:29.926Z,98366.78
2022-10-02T09:43:12.214Z,98366.50
2022-10-02T09:46:52.939Z,98373.94
2022-10-02T09:50:28.528Z,98363.41
2022-10-02T09:53:51.086Z,98359.84
2022-10-02T09:57:21.140Z,98362.13
2022-10-02T10:00:37.926Z,98353.34
2022-10-02T10:04:47.934Z,98353.41
2022-10-02T10:08:37.639Z,98360.56
2022-10-02T10:12:19.373Z,98373.09
2022-10-02T10:16:04.650Z,98377.44
2022-10-02T10:19:47.910Z,98369.66
2022-10-02T10:23:35.906Z,98370.88
2022-10-02T10:27:17.159Z,98379.56
2022-10-02T10:30:37.624Z,98359.53
2022-10-02T10:34:08.803Z,98369.75
2022-10-02T10:37:47.101Z,98365.97
2022-10-02T10:41:11.443Z,98367.16
2022-10-02T10:48:52.790Z,98373.78
2022-10-02T10:52:26.793Z,98381.75
2022-10-02T10:55:59.218Z,98366.81
2022-10-02T10:59:25.026Z,98371.16
2022-10-02T11:02:54.791Z,98369.19
2022-10-02T11:06:54.783Z,98369.50
2022-10-02T11:10:25.597Z,98360.28
2022-10-02T11:13:58.450Z,98365.69
2022-10-02T11:17:31.387Z,98352.59
2022-10-02T11:21:28.242Z,98349.44
2022-10-02T11:25:13.171Z,98341.22
2022-10-02T11:28:37.684Z,98346.06
2022-10-02T11:32:05.427Z,98337.84
2022-10-02T11:35:23.551Z,98335.69
2022-10-02T11:43:30.699Z,98334.78
2022-10-02T11:46:53.685Z,98326.09
2022-10-02T11:50:33.015Z,98329.38
2022-10-02T11:54:02.457Z,98324.06
2022-10-02T11:57:34.616Z,98335.66
2022-10-02T12:01:28.506Z,98327.44
2022-10-02T12:04:46.692Z,98326.09
2022-10-02T12:07:58.618Z,98324.00
2022-10-02T12:11:17.475Z,98313.69
2022-10-02T12:14:35.655Z,98303.16
2022-10-02T12:18:22.029Z,98309.63
2022-10-02T12:22:01.029Z,98305.97
2022-10-02T12:25:39.324Z,98306.47
2022-10-02T12:28:56.220Z,98292.06
2022-10-02T12:32:16.583Z,98291.03
2022-10-02T12:35:38.484Z,98285.41
2022-10-02T12:38:55.608Z,98285.16
2022-10-02T12:42:17.063Z,98281.28
2022-10-02T12:45:58.516Z,98280.22
2022-10-02T12:49:34.484Z,98272.06
2022-10-02T12:53:07.641Z,98259.19
2022-10-02T12:56:55.343Z,98257.81
2022-10-02T13:00:05.746Z,98250.69
2022-10-02T13:03:30.365Z,98250.44
2022-10-02T13:11:59.678Z,98235.78
2022-10-02T13:15:26.178Z,98228.81
2022-10-02T13:19:19.892Z,98225.97
2022-10-02T13:22:33.995Z,98218.53
2022-10-02T13:25:47.014Z,98221.06
2022-10-02T13:29:22.252Z,98205.16
2022-10-02T13:32:44.214Z,98202.00
2022-10-02T13:36:08.851Z,98197.63
2022-10-02T13:39:45.615Z,98192.81
2022-10-02T13:43:49.613Z,98189.44
2022-10-02T13:47:41.981Z,98180.91
2022-10-02T13:50:58.319Z,98187.38
2022-10-02T13:54:25.021Z,98171.69
2022-10-02T13:57:44.635Z,98176.78
2022-10-02T14:01:00.266Z,98159.00
2022-10-02T14:04:23.614Z,98166.53
2022-10-02T14:07:40.773Z,98170.44
2022-10-02T14:10:57.522Z,98181.97
2022-10-02T14:14:15.944Z,98186.81
2022-10-02T14:17:36.051Z,98173.09
2022-10-02T14:20:53.600Z,98179.28
2022-10-02T14:24:46.755Z,98175.69
2022-10-02T14:28:27.058Z,98179.53
2022-10-02T14:32:06.813Z,98160.22
2022-10-02T14:35:37.642Z,98153.66
2022-10-02T14:39:04.599Z,98164.50
2022-10-02T14:42:23.634Z,98167.84
2022-10-02T14:46:17.821Z,98161.03
2022-10-02T14:49:49.013Z,98154.13
2022-10-02T14:53:13.868Z,98158.03
2022-10-02T14:56:49.640Z,98158.53
2022-10-02T15:00:13.791Z,98150.94
2022-10-02T15:03:33.963Z,98154.38
2022-10-02T15:07:05.387Z,98152.00
2022-10-02T15:10:17.660Z,98149.97
2022-10-02T15:13:34.739Z,98130.94
2022-10-02T15:17:04.888Z,98129.16
2022-10-02T15:20:26.943Z,98123.13
2022-10-02T15:23:43.451Z,98126.72
2022-10-02T15:26:51.913Z,98114.72
2022-10-02T15:30:16.502Z,98113.66
2022-10-02T15:33:30.660Z,98123.22
2022-10-02T15:36:52.307Z,98123.00
2022-10-02T15:40:08.943Z,98119.88
2022-10-02T15:43:34.779Z,98117.31
2022-10-02T15:46:54.292Z,98114.44
2022-10-02T15:50:12.642Z,98119.03
2022-10-02T15:53:36.449Z,98115.94
2022-10-02T15:56:52.577Z,98108.00
2022-10-02T16:00:11.296Z,98098.03
2022-10-02T16:03:24.491Z,98103.72
2022-10-02T16:06:50.827Z,98105.03
2022-10-02T16:10:07.673Z,98105.31
2022-10-02T16:13:35.042Z,98103.59
2022-10-02T16:17:06.761Z,98096.44
2022-10-02T16:20:54.105Z,98093.94
2022-10-02T16:24:20.465Z,98088.13
2022-10-02T16:27:49.206Z,98085.56
2022-10-02T16:31:27.064Z,98092.22
2022-10-02T16:34:43.495Z,98102.53
2022-10-02T16:37:49.173Z,98097.41
2022-10-02T16:40:59.642Z,98101.75
2022-10-02T16:44:22.986Z,98110.72
2022-10-02T16:47:30.438Z,98100.44
2022-10-02T16:50:48.758Z,98105.59
2022-10-02T16:54:02.302Z,98103.53
2022-10-02T16:57:21.078Z,98100.44
2022-10-02T17:00:26.749Z,98095.22
2022-10-02T17:03:35.754Z,98108.78
2022-10-02T17:06:43.231Z,98105.19
2022-10-02T17:09:50.708Z,98108.00
2022-10-02T17:13:07.001Z,98122.06
2022-10-02T17:16:20.935Z,98114.63
2022-10-02T17:19:31.787Z,98107.41
2022-10-02T17:22:41.708Z,98105.72
2022-10-02T17:25:55.355Z,98095.47
2022-10-02T17:29:09.594Z,98098.31
2022-10-02T17:32:13.536Z,98085.97
2022-10-02T17:35:20.379Z,98085.31
2022-10-02T17:38:50.513Z,98073.72
2022-10-02T17:41:59.899Z,98078.94
2022-10-02T17:45:19.614Z,98080.50
2022-10-02T17:48:32.922Z,98080.59
2022-10-02T17:51:53.058Z,98076.91
2022-10-02T17:55:32.223Z,98069.78
2022-10-02T17:58:47.170Z,98076.81
2022-10-02T18:02:04.755Z,98087.03
2022-10-02T18:05:27.270Z,98089.38
2022-10-02T18:08:45.499Z,98088.03
2022-10-02T18:12:07.071Z,98089.78
2022-10-02T18:15:27.746Z,98076.19
2022-10-02T18:18:42.244Z,98073.31
2022-10-02T18:21:58.671Z,98093.81
2022-10-02T18:25:27.632Z,98091.19
2022-10-02T18:28:57.303Z,98097.22
2022-10-02T18:32:22.137Z,98099.81
2022-10-02T18:35:53.541Z,98086.69
2022-10-02T18:39:01.068Z,98075.78
2022-10-02T18:42:33.917Z,98073.88
2022-10-02T18:45:47.963Z,98065.91
2022-10-02T18:49:22.646Z,98074.81
2022-10-02T18:52:44.187Z,98073.75
2022-10-02T18:56:03.593Z,98077.25
2022-10-02T18:59:21.309Z,98080.50
2022-10-02T19:02:41.776Z,98087.16
2022-10-02T19:05:52.038Z,98083.34
2022-10-02T19:09:06.341Z,98070.41
2022-10-02T19:12:18.671Z,98063.91
2022-10-02T19:15:27.236Z,98062.66
2022-10-02T19:18:33.025Z,98058.06
2022-10-02T19:21:39.233Z,98056.22
2022-10-02T19:24:48.775Z,98052.09
2022-10-02T19:27:56.427Z,98044.81
2022-10-02T19:31:04.071Z,98036.88
2022-10-02T19:34:16.019Z,98030.94
2022-10-02T19:37:23.029Z,98038.53
2022-10-02T19:40:34.647Z,98040.06
2022-10-02T19:43:49.555Z,98046.50
2022-10-02T19:46:57.363Z,98049.56
2022-10-02T19:50:04.158Z,98044.13
2022-10-02T19:53:21.814Z,98035.34
2022-10-02T19:56:32.096Z,98033.88
2022-10-02T19:59:41.987Z,98025.59
2022-10-02T20:02:48.957Z,98022.38
2022-10-02T20:05:57.847Z,98025.06
2022-10-02T20:09:13.684Z,98027.94
2022-10-02T20:12:25.406Z,98025.69
2022-10-02T20:15:53.679Z,98031.28
2022-10-02T20:18:58.257Z,98034.56
2022-10-02T20:22:09.068Z,98035.69
2022-10-02T20:25:18.992Z,98023.69
2022-10-02T20:28:46.512Z,98017.69
2022-10-02T20:31:55.458Z,98012.03
2022-10-02T20:35:08.553Z,98007.78
2022-10-02T20:38:20.596Z,98010.19
2022-10-02T20:41:28.379Z,98015.69
2022-10-02T20:44:36.358Z,98003.69
2022-10-02T20:48:35.783Z,97998.91
2022-10-02T20:52:17.831Z,97999.16
2022-10-02T20:55:28.847Z,98006.88
2022-10-02T20:59:06.335Z,97993.94
2022-10-02T21:02:29.025Z,98005.44
2022-10-02T21:06:00.519Z,97994.25
2022-10-02T21:09:33.338Z,97997.81
2022-10-02T21:13:12.884Z,97993.63
2022-10-02T21:16:52.881Z,97999.06
2022-10-02T21:20:50.920Z,97997.03
2022-10-02T21:24:47.774Z,97984.84
2022-10-02T21:28:32.257Z,97987.38
2022-10-02T21:31:58.602Z,97975.69
2022-10-02T21:35:37.662Z,97968.28
2022-10-02T21:38:57.991Z,97961.91
2022-10-02T21:42:37.108Z,97958.34
2022-10-02T21:45:58.727Z,97952.06
2022-10-02T21:49:47.324Z,97956.31
2022-10-02T21:53:43.971Z,97949.53
2022-10-02T21:57:38.570Z,97946.47
2022-10-02T22:01:06.524Z,97944.13
2022-10-02T22:04:40.590Z,97935.56
2022-10-02T22:07:54.838Z,97940.09
2022-10-02T22:11:09.795Z,97931.13
2022-10-02T22:14:19.471Z,97939.44
2022-10-02T22:17:33.744Z,97928.44
2022-10-02T22:20:52.996Z,97921.41
2022-10-02T22:24:21.041Z,97925.72
2022-10-02T22:27:56.624Z,97909.84
2022-10-02T22:31:36.669Z,97910.09
2022-10-02T22:34:51.794Z,97898.94
2022-10-02T22:38:10.787Z,97894.97
2022-10-02T22:41:25.814Z,97897.13
2022-10-02T22:44:40.182Z,97893.34
2022-10-02T22:47:54.235Z,97896.31
2022-10-02T22:51:03.473Z,97886.03
2022-10-02T22:54:19.558Z,97890.16
2022-10-02T22:57:34.266Z,97889.47
2022-10-02T23:00:55.410Z,97901.31
2022-10-02T23:04:03.272Z,97902.44
2022-10-02T23:07:16.501Z,97896.28
2022-10-02T23:10:32.708Z,97899.19
2022-10-02T23:13:45.586Z,97896.97
2022-10-02T23:17:02.572Z,97901.00
2022-10-02T23:20:16.111Z,97892.78
2022-10-02T23:23:24.811Z,97892.00
2022-10-02T23:26:34.688Z,97885.94
2022-10-02T23:29:50.994Z,97892.63
2022-10-02T23:33:04.147Z,97890.38
2022-10-02T23:36:20.444Z,97892.81
2022-10-02T23:39:36.202Z,97895.09
2022-10-02T23:42:45.372Z,97885.28
2022-10-02T23:45:57.948Z,97882.25
2022-10-02T23:49:03.712Z,97875.25
2022-10-02T23:52:36.313Z,97878.72
2022-10-02T23:55:56.347Z,97876.22
2022-10-02T23:59:18.411Z,97880.28
